• Join FlightAware (Why Join?)
  • Login
  • US Flag 
01:51PM EST


 

Airport Tracker/Info


-or-


 

Live Flight TrackerFlight Track Log ✈ N27XP ✈ 02-May-2013 ✈ KSOP - KIPJ

Flight Track Log - Related Links

Times and Time Zones

All times are in EDT time to prevent confusion due to time zone crossing. See the N27XP flight status page for this flight to view local times or setup timezone preferences in your user account.

Time Position Orientation Groundspeed Altitude Reporting Facility
EDT Latitude Longitude Course Direction KTS MPH feet Rate Location/Type
01:43PM 35.3636 -79.8672 280° West 288 331 6,000  Level Atlanta Center
01:44PM 35.2993 -79.8217 280° West  Level FlightAware Approximate
01:44PM 35.3703 -79.9408 276° West 282 325 6,000  Level Atlanta Center
01:45PM 35.3093 -79.8953 279° West  Level FlightAware Approximate
01:45PM 35.3797 -80.0369 277° West 287 330 6,100  Level Atlanta Center
01:46PM 35.3167 -79.9691 270° West  Level FlightAware Approximate
01:46PM 35.3894 -80.1436 276° West 292 336 6,100  Level Atlanta Center
01:47PM 35.3181 -80.0435 280° West  Level FlightAware Approximate
01:47PM 35.4008 -80.2400 278° West 294 338 5,700  Level Atlanta Center
01:48PM 35.3289 -80.1169 280° West  Level FlightAware Approximate
01:48PM 35.4081 -80.3389 275° West 294 338 4,100  Level Atlanta Center
01:49PM 35.3395 -80.1903 280° West  Level FlightAware Approximate
01:49PM 35.4336 -80.4294 289° West 276 318 4,100  Level Atlanta Center
01:50PM 35.4614 -80.5225 290° West 272 313 4,100 -60 Level Atlanta Center
01:51PM 35.4889 -80.6158 290° West 279 321 4,000  Descending Atlanta Center
01:52PM 35.5103 -80.7042 287° West 280 322 4,100  Climbing Atlanta Center
01:53PM 35.5356 -80.7925 289° West 279 321 4,100 -300 Level Atlanta Center
01:54PM 35.5608 -80.8858 288° West 252 290 3,600 -600 Descending Atlanta Center
01:55PM 35.5997 -80.9381 312° West 193 222 3,000 -480 Descending Atlanta Center
01:56PM 35.6136 -80.9886 289° West 175 201 2,700 -180 Descending Atlanta Center
01:57PM 35.5833 -81.0333 230° Southwest 173 199 2,700 -120 Level Atlanta Center
01:58PM 35.5447 -81.0781 223° Southwest 175 201 2,500 -540 Descending Atlanta Center
01:59PM 35.5125 -81.1225 228° Southwest 164 189 1,700 -420 Descending Atlanta Center
02:00PM 35.4969 -81.1692 248° West 150 173 1,700  Level Atlanta Center